Rechercher aéroport 
image banner adimage banner adimage banner ad
image banner ad

CA85 - Opus Center Irvine

Situé à Irvine, United States

ICAO - CA85, IATA -

Données fournies par Airmate  

Information générale

Coordonnées: N33°41'1" W117°51'12"
Élévation : 36 feet MSL.
Variation magnétique : 14° East
Voir autres Aéroports à California

Données opérationnelles

Special qualification required
Heure actuelle UTC:
Heure actuelle locale:
METAR: KSNA 212353Z 21009KT 10SM CLR 31/15 A3000 RMK AO2 SLP157 T03060150 10356 20283 55006
TAF: KSNA 212320Z 2200/2224 24006KT P6SM SKC FM220300 VRB04KT P6SM SKC FM222000 24007KT P6SM SKC
Voir NOTAMs / SUP AIP / TFR affectant cet aéroport [VIEW]
Fréquences de communication: [VIEW]

Pistes:

Coordonnées de l'aéroport

Adresse: Irvine United States

Vue satellite de CA85